Bishop Sutton, United Kingdom
Current Conditions -  °F | °C
As of 1:20 AM on Wednesday 22 Oct 2014 (Local Time) from EGGD Reporting Station
Clear Clear  
Wind Chill: 38°   Ceiling: Unl
Heat Index: 45°   Visibility: 6mi
Dew Point: 39°   Wind: 14mph
Humidity: 81%   Direction: 260°W
Pressure: 30.24"   Gusts: NA
Location:  51.37°N, 2.55°W
Report Text: EGGD 220020Z 26012KT CAVOK 07/04 Q1024
Loading
Personal Weather Stations






























Interactive Weather Map New forecast layout! Learn more

10-Day Weather Forecast

Advertisements
Track Severe Weather on mobile